Time;durP1;ratioP1;P1;durP2;ratioP2;P2;SDS_P1;SDS_P2;PMS_P1;PMS_P2;Temp;Humidity;BMP_temperature;BMP_pressure;BME280_temperature;BME280_humidity;BME280_pressure;Samples;Min_cycle;Max_cycle;Signal;HPM_P1;HPM_P2
2023/03/28 00:01:59;;;;;;;5.38;2.78;;;11.20;52.50;;;;;;5062216;28;20060;-77
2023/03/28 00:04:25;;;;;;;5.07;2.88;;;11.20;52.60;;;;;;5065340;28;20289;-75
2023/03/28 00:06:52;;;;;;;4.57;3.00;;;11.20;53.20;;;;;;5058506;28;20533;-77
2023/03/28 00:09:19;;;;;;;4.47;2.65;;;11.20;52.70;;;;;;5053760;28;20033;-78
2023/03/28 00:11:46;;;;;;;3.30;2.45;;;11.20;52.80;;;;;;5057491;28;20422;-78
2023/03/28 00:14:13;;;;;;;3.88;2.45;;;11.10;52.60;;;;;;5056877;28;20082;-77
2023/03/28 00:16:44;;;;;;;4.20;2.20;;;11.10;52.60;;;;;;5061914;28;20037;-77
2023/03/28 00:19:14;;;;;;;5.70;2.80;;;11.10;52.70;;;;;;5060016;28;20094;-78
2023/03/28 00:21:45;;;;;;;3.95;2.10;;;11.10;52.70;;;;;;5059836;28;20285;-77
2023/03/28 00:24:14;;;;;;;3.35;2.30;;;11.10;52.80;;;;;;5061603;28;20036;-77
2023/03/28 00:26:42;;;;;;;4.65;2.53;;;11.10;52.80;;;;;;5064624;28;20060;-78
2023/03/28 00:29:11;;;;;;;3.45;2.22;;;11.10;52.80;;;;;;5080013;28;20040;-77
2023/03/28 00:31:38;;;;;;;4.38;2.97;;;11.00;52.70;;;;;;5060115;28;20041;-77
2023/03/28 00:34:05;;;;;;;5.00;2.55;;;11.10;52.90;;;;;;5065064;28;20047;-77
2023/03/28 00:36:32;;;;;;;5.80;2.95;;;11.10;53.00;;;;;;5066396;28;20029;-76
2023/03/28 00:39:00;;;;;;;3.50;2.03;;;11.00;52.80;;;;;;5075925;28;20052;-77
2023/03/28 00:41:31;;;;;;;2.65;1.92;;;11.10;53.20;;;;;;5075697;28;20034;-77
2023/03/28 00:43:58;;;;;;;2.30;1.95;;;11.10;53.00;;;;;;5081351;28;20081;-76
2023/03/28 00:46:40;;;;;;;3.45;1.88;;;11.10;52.90;;;;;;5096635;28;20515;-77
2023/03/28 00:49:23;;;;;;;8.77;2.20;;;11.10;53.10;;;;;;5081011;28;20012;-77
2023/03/28 00:51:59;;;;;;;5.80;1.98;;;11.10;53.10;;;;;;5085164;28;20051;-78
2023/03/28 00:54:30;;;;;;;5.75;2.60;;;11.00;52.90;;;;;;5056757;28;20427;-77
2023/03/28 00:57:00;;;;;;;4.00;2.30;;;11.00;52.90;;;;;;5064998;28;20361;-78
2023/03/28 00:59:31;;;;;;;3.70;2.15;;;11.10;53.20;;;;;;5069937;28;20058;-77
2023/03/28 01:01:57;;;;;;;3.88;2.45;;;11.10;53.20;;;;;;5058700;28;20032;-77
2023/03/28 01:04:32;;;;;;;3.22;2.10;;;11.10;53.30;;;;;;5065808;28;20442;-75
2023/03/28 01:06:58;;;;;;;4.63;2.25;;;11.10;53.30;;;;;;5079453;28;20132;-76
2023/03/28 01:09:25;;;;;;;2.83;2.00;;;11.10;53.30;;;;;;5059844;28;20090;-76
2023/03/28 01:11:55;;;;;;;2.17;1.85;;;11.00;53.10;;;;;;5057844;28;20211;-76
2023/03/28 01:14:25;;;;;;;1.92;1.35;;;11.00;53.20;;;;;;5059872;28;20535;-80
2023/03/28 01:16:55;;;;;;;8.02;3.13;;;11.00;53.20;;;;;;5085591;28;20043;-76
2023/03/28 01:19:45;;;;;;;6.63;2.20;;;11.00;53.30;;;;;;5083739;28;20055;-77
2023/03/28 01:22:34;;;;;;;5.55;2.88;;;11.10;53.90;;;;;;5072375;28;20483;-77
2023/03/28 01:25:12;;;;;;;3.97;2.03;;;11.00;54.00;;;;;;5050771;28;20571;-78
2023/03/28 01:27:43;;;;;;;2.97;1.67;;;11.10;54.20;;;;;;5059263;28;20310;-76
2023/03/28 01:30:47;;;;;;;6.88;2.85;;;11.10;54.30;;;;;;5045055;28;20061;-78
2023/03/28 01:33:50;;;;;;;5.18;1.80;;;11.10;54.50;;;;;;5065461;28;20127;-76
2023/03/28 01:36:55;;;;;;;4.57;2.13;;;11.10;54.50;;;;;;5077658;28;20355;-77
2023/03/28 01:39:55;;;;;;;4.75;2.15;;;11.10;54.50;;;;;;5058125;28;20178;-78
2023/03/28 01:42:44;;;;;;;5.07;2.75;;;11.10;54.50;;;;;;5061612;28;20395;-80
2023/03/28 01:45:32;;;;;;;6.65;2.58;;;11.10;54.40;;;;;;5062206;28;20112;-81
2023/03/28 01:48:36;;;;;;;2.50;1.98;;;11.10;54.50;;;;;;5006002;28;20045;-78
2023/03/28 01:51:19;;;;;;;6.70;1.98;;;11.10;54.70;;;;;;4937977;28;20459;-80
2023/03/28 01:53:50;;;;;;;4.30;2.00;;;11.10;54.70;;;;;;4969129;28;20038;-80
2023/03/28 01:56:40;;;;;;;3.75;2.10;;;11.10;54.70;;;;;;4978892;28;20680;-81
2023/03/28 01:59:16;;;;;;;4.28;3.13;;;11.10;54.80;;;;;;4981813;28;20050;-79
2023/03/28 02:02:10;;;;;;;5.07;2.40;;;11.10;54.80;;;;;;4980545;28;20027;-80
2023/03/28 02:04:38;;;;;;;4.88;2.33;;;11.10;54.90;;;;;;4982915;28;20030;-79
2023/03/28 02:07:07;;;;;;;3.08;1.73;;;11.10;54.90;;;;;;4985156;28;20382;-79
2023/03/28 02:09:37;;;;;;;;;;;11.10;55.00;;;;;;4982852;28;20394;-80
2023/03/28 02:12:45;;;;;;;4.78;2.15;;;11.10;54.90;;;;;;4982036;28;20635;-80
2023/03/28 02:15:27;;;;;;;4.50;2.00;;;11.10;54.90;;;;;;4987700;28;20026;-78
2023/03/28 02:18:28;;;;;;;4.78;2.13;;;11.10;54.90;;;;;;4966990;28;20030;-80
2023/03/28 02:21:22;;;;;;;4.03;2.75;;;11.10;55.00;;;;;;4996549;28;20372;-80
2023/03/28 02:24:17;;;;;;;3.58;2.22;;;11.10;54.90;;;;;;4967533;28;20050;-79
2023/03/28 02:27:07;;;;;;;8.98;3.60;;;11.10;54.90;;;;;;4999476;28;20043;-79
2023/03/28 02:29:46;;;;;;;4.90;1.88;;;11.10;55.00;;;;;;4991823;28;20035;-80
2023/03/28 02:32:16;;;;;;;5.25;2.25;;;11.10;55.00;;;;;;4985802;28;20101;-80
2023/03/28 02:34:46;;;;;;;4.00;1.92;;;11.10;55.10;;;;;;4986038;28;20084;-81
2023/03/28 02:37:46;;;;;;;6.70;1.80;;;11.10;55.10;;;;;;4976353;28;20409;-81
2023/03/28 02:40:45;;;;;;;4.15;1.85;;;11.10;55.30;;;;;;4990301;28;20022;-79
2023/03/28 02:43:37;;;;;;;4.47;2.17;;;11.10;55.80;;;;;;4987023;28;20056;-80
2023/03/28 02:46:22;;;;;;;5.47;1.98;;;11.10;55.30;;;;;;4966495;28;20046;-79
2023/03/28 02:48:58;;;;;;;5.88;2.10;;;11.00;55.10;;;;;;4994098;28;20042;-78
2023/03/28 02:51:39;;;;;;;6.90;2.65;;;11.00;55.20;;;;;;4995426;28;20046;-82
2023/03/28 02:54:16;;;;;;;4.45;2.03;;;11.00;55.20;;;;;;5003210;28;20497;-80
2023/03/28 02:57:00;;;;;;;4.57;2.00;;;11.00;55.30;;;;;;4979171;28;20493;-79
2023/03/28 02:59:38;;;;;;;4.78;2.80;;;11.00;55.30;;;;;;4986867;28;20042;-80
2023/03/28 03:02:04;;;;;;;4.63;2.25;;;11.00;55.40;;;;;;5002182;28;20058;-78
2023/03/28 03:04:30;;;;;;;5.53;1.83;;;11.00;55.50;;;;;;4989045;28;20030;-81
2023/03/28 03:06:56;;;;;;;5.95;2.30;;;10.90;55.40;;;;;;4998208;28;20151;-80
2023/03/28 03:09:22;;;;;;;5.85;2.20;;;10.90;55.40;;;;;;5013714;28;20113;-80
2023/03/28 03:11:48;;;;;;;3.20;1.90;;;10.90;55.50;;;;;;4993075;28;20062;-79
2023/03/28 03:14:14;;;;;;;6.95;2.17;;;10.80;55.50;;;;;;5001816;28;20220;-80
2023/03/28 03:16:42;;;;;;;5.10;1.65;;;10.90;55.70;;;;;;5007418;28;20045;-80
2023/03/28 03:19:08;;;;;;;5.80;2.85;;;10.80;55.60;;;;;;4992934;28;20495;-79
2023/03/28 03:21:35;;;;;;;4.25;1.88;;;10.80;55.70;;;;;;4998155;28;20033;-80
2023/03/28 03:24:03;;;;;;;4.72;2.83;;;10.80;55.70;;;;;;4996545;28;20046;-80
2023/03/28 03:26:29;;;;;;;7.60;2.10;;;10.80;55.80;;;;;;5001410;28;20367;-79
2023/03/28 03:29:03;;;;;;;3.30;1.80;;;10.80;55.80;;;;;;4986995;28;20031;-79
2023/03/28 03:31:31;;;;;;;3.17;1.77;;;10.80;55.80;;;;;;5006783;28;20042;-81
2023/03/28 03:34:15;;;;;;;5.50;1.60;;;10.80;55.80;;;;;;4989890;28;20408;-80
2023/03/28 03:36:48;;;;;;;4.80;1.90;;;10.80;55.80;;;;;;5022398;28;20395;-79
2023/03/28 03:39:15;;;;;;;4.88;2.22;;;10.80;55.90;;;;;;5020645;28;20613;-79
2023/03/28 03:41:41;;;;;;;4.00;1.40;;;10.80;55.90;;;;;;5021115;28;20030;-79
2023/03/28 03:44:08;;;;;;;4.35;1.92;;;10.80;55.90;;;;;;5008817;28;20261;-79
2023/03/28 03:46:35;;;;;;;4.70;2.30;;;10.90;56.10;;;;;;4992097;28;20053;-78
2023/03/28 03:49:01;;;;;;;5.95;2.25;;;10.90;56.10;;;;;;5015098;28;20081;-79
2023/03/28 03:51:28;;;;;;;8.52;2.20;;;10.90;56.10;;;;;;4980831;28;20042;-79
2023/03/28 03:53:59;;;;;;;6.45;1.63;;;10.90;56.10;;;;;;4975583;28;20113;-83
2023/03/28 03:56:35;;;;;;;8.23;2.17;;;11.00;56.30;;;;;;5003137;28;20109;-83
2023/03/28 03:59:01;;;;;;;3.90;1.95;;;10.90;56.10;;;;;;4987573;28;20034;-82
2023/03/28 04:01:31;;;;;;;3.22;1.77;;;10.90;56.10;;;;;;5008363;28;20060;-82
2023/03/28 04:04:10;;;;;;;3.78;1.73;;;11.00;56.30;;;;;;5039897;28;20094;-83
2023/03/28 04:06:57;;;;;;;4.35;1.73;;;11.00;56.30;;;;;;5022924;28;20086;-83
2023/03/28 04:09:26;;;;;;;5.07;2.13;;;11.00;56.30;;;;;;5003881;28;20048;-81
2023/03/28 04:11:57;;;;;;;6.80;2.38;;;11.00;56.30;;;;;;5023494;28;20125;-80
2023/03/28 04:14:24;;;;;;;7.60;2.13;;;11.00;56.40;;;;;;5021316;28;20111;-80
2023/03/28 04:17:00;;;;;;;4.72;1.90;;;11.00;56.40;;;;;;5016160;28;20037;-81
2023/03/28 04:19:27;;;;;;;7.40;2.45;;;11.00;56.50;;;;;;5024603;28;20039;-81
2023/03/28 04:21:55;;;;;;;5.10;2.50;;;11.00;56.50;;;;;;5005970;28;20045;-80
2023/03/28 04:24:23;;;;;;;6.63;2.13;;;11.00;56.50;;;;;;4991238;28;20045;-80
2023/03/28 04:27:08;;;;;;;4.68;2.17;;;11.00;56.60;;;;;;4981772;28;20070;-80
2023/03/28 04:29:35;;;;;;;2.85;1.80;;;11.00;56.60;;;;;;5005741;28;20061;-80
2023/03/28 04:32:26;;;;;;;4.30;1.63;;;11.00;56.60;;;;;;5002204;28;20140;-81
2023/03/28 04:35:06;;;;;;;5.82;2.05;;;11.00;56.60;;;;;;5000669;28;20084;-81
2023/03/28 04:37:36;;;;;;;4.00;2.35;;;11.00;56.70;;;;;;5002238;28;20045;-79
2023/03/28 04:40:10;;;;;;;5.63;2.00;;;11.10;57.00;;;;;;5001767;28;20034;-80
2023/03/28 04:42:51;;;;;;;7.65;2.35;;;11.10;57.00;;;;;;4985997;28;20030;-82
2023/03/28 04:45:25;;;;;;;13.88;3.85;;;11.10;57.00;;;;;;4966515;28;20038;-79
2023/03/28 04:47:52;;;;;;;7.57;2.40;;;11.10;57.10;;;;;;4989648;28;20159;-80
2023/03/28 04:50:20;;;;;;;5.90;2.53;;;11.10;57.10;;;;;;4983652;28;20050;-79
2023/03/28 04:52:46;;;;;;;7.65;2.20;;;11.10;57.20;;;;;;4979567;28;20114;-81
2023/03/28 04:55:15;;;;;;;4.32;2.38;;;11.10;57.30;;;;;;4984646;28;20120;-80
2023/03/28 04:57:41;;;;;;;4.82;1.95;;;11.10;57.30;;;;;;4985860;28;20198;-81
2023/03/28 05:00:11;;;;;;;5.72;2.50;;;11.10;57.40;;;;;;4999702;28;20030;-80
2023/03/28 05:03:00;;;;;;;4.28;2.67;;;11.10;57.50;;;;;;4983895;28;20030;-80
2023/03/28 05:05:29;;;;;;;7.93;2.75;;;11.20;57.70;;;;;;4984015;28;20064;-81
2023/03/28 05:07:57;;;;;;;7.10;2.35;;;11.20;57.70;;;;;;4980400;28;20363;-80
2023/03/28 05:10:23;;;;;;;4.75;2.00;;;11.20;57.80;;;;;;4984438;28;20185;-80
2023/03/28 05:12:50;;;;;;;7.53;2.88;;;11.20;57.80;;;;;;4982079;28;20435;-79
2023/03/28 05:15:16;;;;;;;5.60;2.13;;;11.20;57.90;;;;;;4981075;28;20046;-76
2023/03/28 05:17:56;;;;;;;4.10;2.42;;;11.20;58.00;;;;;;4978949;28;20073;-75
2023/03/28 05:20:29;;;;;;;4.38;1.92;;;11.20;58.30;;;;;;4974801;28;20038;-75
2023/03/28 05:22:57;;;;;;;6.35;2.35;;;11.30;59.50;;;;;;4984350;28;20424;-75
2023/03/28 05:25:24;;;;;;;4.18;1.63;;;11.50;59.70;;;;;;4981425;28;20105;-75
2023/03/28 05:27:50;;;;;;;5.55;2.45;;;11.70;60.10;;;;;;4980340;28;20038;-75
2023/03/28 05:30:18;;;;;;;3.97;1.95;;;11.70;60.00;;;;;;4972802;28;20046;-76
2023/03/28 05:32:44;;;;;;;4.72;3.03;;;11.90;60.20;;;;;;4978793;28;20046;-75
2023/03/28 05:35:13;;;;;;;4.47;1.77;;;12.00;60.20;;;;;;4972283;28;20027;-74
2023/03/28 05:37:40;;;;;;;3.78;2.15;;;12.20;60.50;;;;;;4996265;28;20377;-74
2023/03/28 05:40:09;;;;;;;4.40;2.05;;;12.30;60.40;;;;;;4977136;28;20438;-78
2023/03/28 05:42:38;;;;;;;2.60;1.85;;;12.40;60.50;;;;;;4994278;28;20041;-78
2023/03/28 05:45:13;;;;;;;4.97;1.90;;;12.40;60.30;;;;;;4979018;28;20043;-80
2023/03/28 05:47:42;;;;;;;8.40;2.85;;;12.50;60.40;;;;;;4980008;28;20050;-80
2023/03/28 05:50:09;;;;;;;5.45;2.38;;;12.50;60.30;;;;;;4979980;28;20349;-80
2023/03/28 05:52:36;;;;;;;6.47;3.17;;;12.50;60.30;;;;;;4995575;28;20502;-82
2023/03/28 05:55:06;;;;;;;3.13;2.17;;;12.40;60.10;;;;;;4982199;28;20118;-81
2023/03/28 05:57:32;;;;;;;6.97;2.50;;;12.40;60.10;;;;;;4994354;28;20073;-79
2023/03/28 05:59:58;;;;;;;7.53;3.03;;;12.30;60.00;;;;;;4979972;28;20049;-79
2023/03/28 06:02:25;;;;;;;4.35;2.53;;;12.20;59.90;;;;;;4980921;28;20153;-82
2023/03/28 06:04:56;;;;;;;4.25;2.70;;;12.20;60.00;;;;;;4983980;28;20049;-86
2023/03/28 06:07:27;;;;;;;9.40;2.78;;;12.20;60.00;;;;;;4988994;28;20501;-83
2023/03/28 06:09:53;;;;;;;7.47;2.75;;;12.10;60.00;;;;;;4980783;28;20254;-83
2023/03/28 06:12:19;;;;;;;3.80;2.78;;;12.10;60.40;;;;;;4998919;28;20034;-80
2023/03/28 06:14:51;;;;;;;4.03;2.33;;;12.10;60.70;;;;;;4991338;28;20037;-89
2023/03/28 06:17:27;;;;;;;3.28;2.13;;;12.10;61.00;;;;;;4963815;28;20069;-86
2023/03/28 06:19:56;;;;;;;5.30;1.75;;;12.20;61.40;;;;;;4970061;28;20041;-86
2023/03/28 06:22:22;;;;;;;3.63;1.92;;;12.20;61.50;;;;;;4961987;28;20039;-85
2023/03/28 06:24:54;;;;;;;6.68;2.45;;;12.20;61.60;;;;;;4970041;28;20112;-83
2023/03/28 06:27:30;;;;;;;2.83;2.15;;;12.30;61.90;;;;;;4969570;28;20108;-86
2023/03/28 06:29:58;;;;;;;5.80;2.88;;;12.30;62.10;;;;;;4971895;28;20058;-80
2023/03/28 06:32:25;;;;;;;5.93;2.33;;;12.40;62.50;;;;;;4980664;28;20112;-83
2023/03/28 06:34:51;;;;;;;4.95;2.15;;;12.40;62.70;;;;;;4968481;28;20482;-81
2023/03/28 06:37:18;;;;;;;3.60;1.67;;;12.50;63.10;;;;;;4967405;28;20027;-84
2023/03/28 06:39:53;;;;;;;4.30;1.92;;;12.50;63.20;;;;;;4982425;28;20046;-82
2023/03/28 06:42:22;;;;;;;3.83;1.90;;;12.60;63.20;;;;;;4973087;28;20097;-82
2023/03/28 06:44:55;;;;;;;4.68;1.63;;;12.60;63.20;;;;;;4963103;28;20070;-85
2023/03/28 06:47:41;;;;;;;2.65;1.92;;;12.50;62.90;;;;;;4981915;28;20206;-83
2023/03/28 06:50:08;;;;;;;2.67;1.60;;;12.50;62.70;;;;;;4961185;28;20058;-84
2023/03/28 06:52:45;;;;;;;2.47;1.42;;;12.50;62.70;;;;;;4951461;28;20165;-85
2023/03/28 06:55:11;;;;;;;3.45;1.83;;;12.50;62.60;;;;;;4964279;28;20102;-84
2023/03/28 06:57:37;;;;;;;4.50;1.90;;;12.50;62.50;;;;;;4982835;28;20030;-84
2023/03/28 07:00:22;;;;;;;5.28;2.38;;;12.50;62.30;;;;;;4962107;28;20085;-85
2023/03/28 07:03:17;;;;;;;4.85;1.35;;;12.50;62.30;;;;;;4968006;28;20446;-83
2023/03/28 07:05:44;;;;;;;2.80;1.35;;;12.40;61.90;;;;;;4966580;28;20505;-84
2023/03/28 07:08:11;;;;;;;3.42;2.17;;;12.40;61.90;;;;;;4965382;28;20037;-82
2023/03/28 07:10:38;;;;;;;2.92;1.40;;;12.40;61.80;;;;;;4966807;28;20100;-81
2023/03/28 07:13:06;;;;;;;2.58;1.38;;;12.40;61.70;;;;;;4961397;28;20301;-78
2023/03/28 07:15:33;;;;;;;2.78;1.42;;;12.40;61.60;;;;;;4977397;28;20041;-80
2023/03/28 07:17:59;;;;;;;2.78;1.40;;;12.30;61.40;;;;;;4961163;28;20034;-81
2023/03/28 07:20:26;;;;;;;4.18;1.50;;;12.30;61.30;;;;;;4963218;28;20038;-81
2023/03/28 07:22:52;;;;;;;3.40;1.15;;;12.30;61.30;;;;;;4960836;28;20027;-81
2023/03/28 07:25:19;;;;;;;2.08;1.20;;;12.30;61.20;;;;;;4964059;28;20046;-81
2023/03/28 07:27:46;;;;;;;3.80;1.52;;;12.30;61.10;;;;;;4971059;28;20350;-81
2023/03/28 07:30:13;;;;;;;1.55;1.23;;;12.40;61.20;;;;;;4947741;28;20061;-81
2023/03/28 07:32:39;;;;;;;3.70;1.60;;;12.40;61.00;;;;;;4962901;28;20031;-79
2023/03/28 07:35:07;;;;;;;2.88;1.10;;;12.40;61.00;;;;;;4963325;28;20035;-81
2023/03/28 07:37:43;;;;;;;2.78;1.50;;;12.40;60.80;;;;;;4963447;28;20406;-81
2023/03/28 07:40:32;;;;;;;3.22;1.35;;;12.40;60.70;;;;;;4961980;28;20114;-81
2023/03/28 07:42:58;;;;;;;1.98;1.30;;;12.40;60.60;;;;;;4962147;28;20532;-81
2023/03/28 07:45:26;;;;;;;2.67;1.33;;;12.50;60.80;;;;;;4962129;28;20090;-80
2023/03/28 07:47:52;;;;;;;2.17;1.30;;;12.40;60.50;;;;;;4967029;28;20413;-80
2023/03/28 07:50:18;;;;;;;3.33;1.35;;;12.40;60.40;;;;;;4966843;28;20041;-83
2023/03/28 07:52:45;;;;;;;2.17;1.23;;;12.40;60.40;;;;;;4968865;28;20046;-82
2023/03/28 07:55:13;;;;;;;2.75;1.40;;;12.40;60.40;;;;;;4961052;28;20397;-82
2023/03/28 07:57:45;;;;;;;2.42;1.88;;;12.40;60.40;;;;;;4976186;28;20031;-82
2023/03/28 08:00:23;;;;;;;4.85;1.67;;;12.50;60.80;;;;;;4981078;28;20142;-83
2023/03/28 08:03:08;;;;;;;4.05;1.77;;;12.50;61.00;;;;;;4958812;28;20114;-81
2023/03/28 08:05:36;;;;;;;2.88;1.70;;;12.70;61.50;;;;;;4964439;28;20125;-83
2023/03/28 08:08:08;;;;;;;3.55;2.15;;;12.80;61.80;;;;;;4965100;28;20337;-83
2023/03/28 08:10:35;;;;;;;4.50;1.65;;;12.90;62.10;;;;;;4964951;28;20043;-83
2023/03/28 08:13:03;;;;;;;3.25;1.55;;;13.00;62.30;;;;;;4965969;28;20474;-82
2023/03/28 08:15:29;;;;;;;3.80;1.33;;;13.00;62.30;;;;;;4966104;28;20421;-83
2023/03/28 08:17:55;;;;;;;4.00;1.70;;;13.10;62.60;;;;;;4963566;28;20516;-81
2023/03/28 08:20:21;;;;;;;3.20;1.63;;;13.20;62.80;;;;;;4964889;28;20039;-83
2023/03/28 08:22:56;;;;;;;4.18;1.65;;;13.30;63.10;;;;;;4962046;28;20034;-82
2023/03/28 08:25:42;;;;;;;3.28;1.85;;;13.30;63.10;;;;;;4965702;28;20045;-82
2023/03/28 08:28:08;;;;;;;4.22;1.42;;;13.40;63.30;;;;;;4963522;28;20367;-80
2023/03/28 08:30:37;;;;;;;4.68;1.73;;;13.40;63.30;;;;;;4968609;28;20338;-84
2023/03/28 08:33:04;;;;;;;3.88;1.60;;;13.50;63.60;;;;;;4980702;28;20143;-86
2023/03/28 08:35:31;;;;;;;2.35;1.30;;;13.50;63.60;;;;;;4966042;28;20038;-83
2023/03/28 08:38:01;;;;;;;2.95;1.73;;;13.50;63.60;;;;;;4965293;28;20065;-83
2023/03/28 08:40:29;;;;;;;2.30;1.23;;;13.60;63.80;;;;;;4963220;28;20061;-83
2023/03/28 08:43:27;;;;;;;2.53;1.50;;;13.60;63.90;;;;;;4980189;28;20031;-84
2023/03/28 08:45:56;;;;;;;3.05;1.40;;;13.60;63.90;;;;;;4963174;28;20042;-83
2023/03/28 08:48:36;;;;;;;3.00;1.60;;;13.60;63.80;;;;;;4962673;28;20410;-83
2023/03/28 08:51:20;;;;;;;3.88;1.85;;;13.70;64.00;;;;;;4975468;28;20049;-83
2023/03/28 08:54:16;;;;;;;3.05;1.27;;;13.70;64.00;;;;;;4962665;28;20482;-81
2023/03/28 08:56:47;;;;;;;2.40;1.25;;;13.70;64.10;;;;;;4960492;28;20429;-81
2023/03/28 08:59:22;;;;;;;4.90;1.50;;;13.80;64.10;;;;;;4978196;28;20191;-81
2023/03/28 09:01:49;;;;;;;2.40;1.08;;;13.80;64.00;;;;;;4980033;28;20125;-82
2023/03/28 09:04:35;;;;;;;4.45;1.10;;;13.80;63.90;;;;;;4962929;28;20046;-82
2023/03/28 09:07:45;;;;;;;4.15;1.20;;;13.90;64.20;;;;;;4932757;28;20430;-80
2023/03/28 09:10:17;;;;;;;4.13;1.15;;;14.00;64.30;;;;;;4925672;28;20054;-82
2023/03/28 09:13:28;;;;;;;2.38;1.60;;;14.10;64.30;;;;;;4961792;28;20109;-81
2023/03/28 09:16:08;;;;;;;1.85;1.05;;;14.20;64.30;;;;;;4972386;28;20027;-83
2023/03/28 09:19:02;;;;;;;4.82;1.80;;;14.20;64.60;;;;;;4965269;28;20427;-84
2023/03/28 09:22:19;;;;;;;3.33;1.20;;;14.30;64.20;;;;;;4979472;28;20043;-85
2023/03/28 09:25:02;;;;;;;1.13;0.82;;;14.40;64.20;;;;;;4897256;28;20050;-83
2023/03/28 09:27:36;;;;;;;3.17;1.42;;;14.40;64.10;;;;;;4978157;28;20399;-82
2023/03/28 09:30:27;;;;;;;2.15;1.02;;;14.40;64.00;;;;;;4964607;28;20043;-81
2023/03/28 09:32:59;;;;;;;2.10;0.90;;;14.40;64.10;;;;;;4966009;28;20034;-84
2023/03/28 09:35:27;;;;;;;3.10;0.88;;;14.50;64.20;;;;;;4964208;28;20318;-84
2023/03/28 09:37:57;;;;;;;1.52;1.00;;;14.40;64.00;;;;;;4965678;28;20276;-83
2023/03/28 09:40:28;;;;;;;2.15;1.00;;;14.50;64.30;;;;;;4962565;28;20548;-82
2023/03/28 09:43:14;;;;;;;9.68;1.60;;;14.50;64.30;;;;;;4969821;28;20197;-82
2023/03/28 09:46:01;;;;;;;2.92;1.08;;;14.60;64.30;;;;;;4975584;28;20038;-82
2023/03/28 09:48:57;;;;;;;1.95;1.00;;;14.50;64.10;;;;;;4978619;28;20536;-83
2023/03/28 09:51:26;;;;;;;3.85;1.27;;;14.60;64.20;;;;;;4976278;28;20584;-84
2023/03/28 09:53:53;;;;;;;2.30;1.13;;;14.60;64.20;;;;;;4972376;28;20035;-85
2023/03/28 09:56:40;;;;;;;2.05;0.77;;;14.60;64.20;;;;;;4967605;28;20045;-85
2023/03/28 09:59:34;;;;;;;1.42;1.00;;;14.70;64.40;;;;;;4961566;28;20062;-84
2023/03/28 10:02:28;;;;;;;1.73;1.23;;;14.70;64.30;;;;;;4962321;28;20181;-84
2023/03/28 10:04:57;;;;;;;4.30;1.23;;;14.70;64.40;;;;;;4950642;28;20115;-82
2023/03/28 10:07:44;;;;;;;3.03;1.15;;;14.70;64.20;;;;;;4968884;28;20022;-84
2023/03/28 10:10:23;;;;;;;4.30;1.25;;;14.80;64.30;;;;;;4966208;28;20042;-83
2023/03/28 10:13:03;;;;;;;3.33;1.08;;;14.80;64.20;;;;;;4966837;28;20065;-82
2023/03/28 10:15:40;;;;;;;4.60;1.40;;;14.90;64.20;;;;;;4966748;28;20074;-84
2023/03/28 10:18:19;;;;;;;3.08;1.40;;;15.00;64.20;;;;;;4966924;28;20584;-83
2023/03/28 10:20:50;;;;;;;4.68;1.60;;;15.20;64.20;;;;;;4966549;28;20503;-84
2023/03/28 10:23:22;;;;;;;2.78;1.10;;;15.30;64.10;;;;;;4966460;28;20083;-84
2023/03/28 10:25:53;;;;;;;3.47;1.38;;;15.30;63.90;;;;;;4965498;28;20042;-81
2023/03/28 10:28:30;;;;;;;4.53;1.23;;;15.40;63.90;;;;;;4981337;28;20189;-83
2023/03/28 10:31:00;;;;;;;3.28;1.00;;;15.40;63.90;;;;;;4965470;28;20066;-82
2023/03/28 10:33:34;;;;;;;4.40;1.30;;;15.50;64.00;;;;;;4981199;28;20062;-80
2023/03/28 10:36:47;;;;;;;3.95;1.30;;;15.50;64.00;;;;;;4981990;28;20031;-82
2023/03/28 10:39:22;;;;;;;3.88;1.52;;;15.50;63.90;;;;;;4966493;28;20031;-82
2023/03/28 10:42:21;;;;;;;6.82;1.40;;;15.60;63.90;;;;;;4964295;28;20042;-81
2023/03/28 10:45:03;;;;;;;4.13;1.38;;;15.70;63.80;;;;;;4962703;28;20050;-82
2023/03/28 10:47:33;;;;;;;3.33;1.10;;;15.80;63.70;;;;;;4971610;28;20054;-82
2023/03/28 10:50:18;;;;;;;2.58;1.40;;;15.90;63.60;;;;;;4964393;28;20027;-83
2023/03/28 10:53:00;;;;;;;4.72;1.83;;;16.00;63.60;;;;;;4966004;28;20039;-79
2023/03/28 10:56:17;;;;;;;1.67;1.45;;;16.00;63.40;;;;;;4962428;28;20096;-82
2023/03/28 10:58:52;;;;;;;2.28;0.95;;;16.10;63.50;;;;;;4958079;28;20053;-82
2023/03/28 11:01:34;;;;;;;4.07;1.27;;;16.10;63.50;;;;;;4968152;28;20109;-84
2023/03/28 11:04:13;;;;;;;;;;;16.00;63.30;;;;;;4978461;28;20522;-85
2023/03/28 11:06:52;;;;;;;5.38;2.47;;;16.10;63.50;;;;;;4982171;28;20370;-86
2023/03/28 11:09:40;;;;;;;5.18;1.52;;;16.10;63.40;;;;;;4966884;28;20118;-86
2023/03/28 11:12:56;;;;;;;3.22;1.45;;;16.10;63.30;;;;;;4959846;28;20145;-84
2023/03/28 11:15:33;;;;;;;4.10;1.02;;;16.30;63.50;;;;;;4965939;28;20031;-85
2023/03/28 11:18:09;;;;;;;;;;;16.40;63.50;;;;;;4968655;28;20030;-85
2023/03/28 11:21:00;;;;;;;7.03;1.35;;;16.40;63.30;;;;;;4981719;28;20054;-82
2023/03/28 11:23:43;;;;;;;6.53;1.88;;;16.40;63.00;;;;;;4965250;28;20487;-84
2023/03/28 11:26:31;;;;;;;4.95;1.20;;;16.40;63.00;;;;;;4966297;28;20041;-84
2023/03/28 11:29:50;;;;;;;4.75;1.05;;;16.40;63.00;;;;;;4964249;28;20057;-84
2023/03/28 11:33:01;;;;;;;5.43;1.80;;;16.40;62.90;;;;;;4946660;28;20051;-84
2023/03/28 11:35:32;;;;;;;4.70;1.40;;;16.50;63.00;;;;;;4928332;28;20047;-84
2023/03/28 11:38:21;;;;;;;3.42;1.30;;;16.50;62.90;;;;;;4972361;28;20039;-87
2023/03/28 11:41:08;;;;;;;3.42;1.40;;;16.40;62.70;;;;;;4983862;28;20118;-87
2023/03/28 11:44:20;;;;;;;4.30;1.27;;;16.40;62.70;;;;;;4982940;28;20519;-86
2023/03/28 11:47:10;;;;;;;4.63;1.38;;;16.40;62.70;;;;;;4977228;28;20059;-87
2023/03/28 11:49:46;;;;;;;4.35;1.08;;;16.30;62.50;;;;;;4963528;28;20091;-83
2023/03/28 11:52:46;;;;;;;2.90;1.25;;;16.40;62.70;;;;;;4968083;28;20139;-85
2023/03/28 11:55:21;;;;;;;7.07;2.15;;;16.30;62.60;;;;;;4963355;28;20042;-85
2023/03/28 11:58:04;;;;;;;6.15;1.67;;;16.30;62.50;;;;;;4978996;28;20042;-86
2023/03/28 12:00:56;;;;;;;5.03;1.50;;;16.20;62.30;;;;;;4966398;28;20179;-86
2023/03/28 12:03:46;;;;;;;3.55;1.52;;;16.20;62.40;;;;;;4984440;28;20246;-86
2023/03/28 12:06:20;;;;;;;3.92;1.20;;;16.10;62.20;;;;;;4966477;28;20413;-85
2023/03/28 12:09:02;;;;;;;4.05;1.58;;;16.10;62.30;;;;;;4982231;28;20066;-86
2023/03/28 12:11:48;;;;;;;3.50;1.42;;;16.00;62.20;;;;;;4964095;28;20082;-82
2023/03/28 12:14:51;;;;;;;3.35;1.77;;;16.00;62.30;;;;;;4980058;28;20086;-80
2023/03/28 12:17:59;;;;;;;4.63;1.30;;;16.00;62.30;;;;;;4969670;28;20569;-81
2023/03/28 12:20:50;;;;;;;4.95;1.65;;;16.00;62.30;;;;;;4963635;28;20041;-82
2023/03/28 12:23:36;;;;;;;3.75;1.77;;;16.00;62.10;;;;;;4958918;28;20406;-83
2023/03/28 12:26:43;;;;;;;5.32;1.40;;;15.90;61.90;;;;;;4962007;28;20198;-80
2023/03/28 12:29:22;;;;;;;3.70;1.48;;;15.90;61.70;;;;;;4962114;28;20439;-82
2023/03/28 12:32:18;;;;;;;4.10;1.40;;;15.80;61.50;;;;;;4962908;28;20230;-83
2023/03/28 12:35:12;;;;;;;3.80;1.25;;;15.80;61.50;;;;;;4956890;28;20039;-81
2023/03/28 12:38:15;;;;;;;5.43;1.20;;;15.70;61.30;;;;;;4963932;28;20031;-79
2023/03/28 12:40:56;;;;;;;3.75;1.23;;;15.70;61.30;;;;;;4961107;28;20034;-81
2023/03/28 12:43:48;;;;;;;3.28;1.13;;;15.60;61.10;;;;;;4967318;28;20423;-82
2023/03/28 12:46:31;;;;;;;3.35;1.75;;;15.60;61.10;;;;;;4958708;28;20206;-80
2023/03/28 12:48:59;;;;;;;2.75;1.35;;;15.60;61.10;;;;;;4960761;28;20072;-80
2023/03/28 12:52:07;;;;;;;2.53;1.23;;;15.60;61.00;;;;;;4960377;28;20047;-80
2023/03/28 12:54:52;;;;;;;5.32;1.60;;;15.50;60.80;;;;;;4907077;29;20498;-82
2023/03/28 12:57:42;;;;;;;4.70;1.73;;;15.50;60.80;;;;;;4960457;28;20042;-82
2023/03/28 13:00:40;;;;;;;1.95;1.05;;;15.50;60.90;;;;;;4962545;28;20034;-82
2023/03/28 13:03:53;;;;;;;4.15;1.30;;;15.40;60.90;;;;;;4963401;28;20042;-78
2023/03/28 13:07:12;;;;;;;4.80;1.80;;;15.40;60.90;;;;;;4957006;28;20069;-81
2023/03/28 13:09:59;;;;;;;7.97;1.98;;;15.50;61.20;;;;;;4926099;29;20035;-82
2023/03/28 13:12:29;;;;;;;4.72;1.70;;;15.50;61.00;;;;;;4958269;28;20074;-81
2023/03/28 13:15:16;;;;;;;4.25;1.58;;;15.60;61.10;;;;;;4966590;28;20125;-82
2023/03/28 13:18:07;;;;;;;3.75;1.10;;;15.60;61.10;;;;;;4963747;28;20030;-84
2023/03/28 13:20:42;;;;;;;4.75;1.75;;;15.60;60.90;;;;;;4963820;28;20238;-82
2023/03/28 13:23:14;;;;;;;3.53;1.15;;;15.70;61.00;;;;;;4957814;28;20031;-81
2023/03/28 13:25:43;;;;;;;3.67;1.27;;;15.70;60.90;;;;;;4961187;28;20038;-83
2023/03/28 13:28:12;;;;;;;5.10;1.67;;;15.80;61.10;;;;;;4964283;28;20487;-82
2023/03/28 13:31:08;;;;;;;3.88;1.70;;;15.80;61.10;;;;;;4962416;28;20426;-83
2023/03/28 13:33:45;;;;;;;2.55;1.77;;;15.80;61.00;;;;;;4947835;28;20050;-82
2023/03/28 13:36:18;;;;;;;6.72;1.48;;;15.90;61.00;;;;;;4963793;28;20047;-81
2023/03/28 13:39:17;;;;;;;2.67;1.23;;;15.90;61.00;;;;;;4964021;28;20641;-82
2023/03/28 13:41:47;;;;;;;3.45;1.17;;;15.90;60.90;;;;;;4964397;28;20162;-81